Sanpo Maru No.5 — JL6343 — position and weather

sailwx.info

Track history (hours):
 
Tides and Currents Weather Stations Pressure Air Temp Water Temp Dewpoint Dewpoint Depression Visibility Wind Speed Wind Dir Waves Ship Positions

Sanpo Maru No.5

Last reported at 2014-Dec-15 10:23 UTC. Time now 2014-Dec-18 23:51 UTC.
Position N 35°17' E 139°45'.

Length 71 m; draft 4.5 m.

Type: Ship. MMSI: 431500283.

Date/timePositionNaut miles runAvg speedWind from/ knotsBaromVisibWave heightAir tempDewpointWater temp
2014-Dec-15 10:23N 35°17' E 139°45'8 9.6
2014-Dec-15 09:33N 35°25' E 139°44'6 0.4
2014-Dec-14 18:29N 35°28' E 139°51'1010.7
2014-Dec-14 17:33N 35°20' E 139°44'1010.1
2014-Dec-14 16:33N 35°10' E 139°46'1 0.0
2014-Dec-13 07:29N 35°11' E 139°46'8 8.8
2014-Dec-13 06:32N 35°19' E 139°43'8 8.3
2014-Dec-13 05:33N 35°27' E 139°46'6 0.6
2014-Dec-12 19:22N 35°29' E 139°53'911.1
2014-Dec-12 18:34N 35°23' E 139°46'10 9.9
2014-Dec-12 17:34N 35°13' E 139°47'  
2014-Dec-08 07:33N 35°16' E 139°46'9 9.1
2014-Dec-08 06:33N 35°25' E 139°44'2 0.2
2014-Dec-07 17:16N 35°24' E 139°47'810.7
2014-Dec-07 16:33N 35°17' E 139°45'6 0.2
2014-Dec-06 07:30N 35°11' E 139°46'910.1
2014-Dec-06 06:33N 35°20' E 139°42'10 9.7
2014-Dec-06 05:34N 35°28' E 139°49'3 2.4
2014-Dec-06 04:25N 35°30' E 139°51'5 1.0
2014-Dec-05 23:32N 35°30' E 139°57'1010.7
2014-Dec-05 22:33N 35°24' E 139°46'10 9.6
2014-Dec-05 21:32N 35°14' E 139°47'  
Track history (hours):
 
Tides and Currents Weather Stations Pressure Air Temp Water Temp Dewpoint Dewpoint Depression Visibility Wind Speed Wind Dir Waves Ship Positions

Sanpo Maru No.5

Last reported at 2014-Dec-15 10:23 UTC. Time now 2014-Dec-18 23:51 UTC.
Position N 35°17' E 139°45'.

Length 71 m; draft 4.5 m.

Type: Ship. MMSI: 431500283.

Date/timePositionNaut miles runAvg speedWind from/ knotsBaromVisibWave heightAir tempDewpointWater temp
2014-Dec-15 10:23N 35°17' E 139°45'8 9.6
2014-Dec-15 09:33N 35°25' E 139°44'6 0.4
2014-Dec-14 18:29N 35°28' E 139°51'1010.7
2014-Dec-14 17:33N 35°20' E 139°44'1010.1
2014-Dec-14 16:33N 35°10' E 139°46'1 0.0
2014-Dec-13 07:29N 35°11' E 139°46'8 8.8
2014-Dec-13 06:32N 35°19' E 139°43'8 8.3
2014-Dec-13 05:33N 35°27' E 139°46'6 0.6
2014-Dec-12 19:22N 35°29' E 139°53'911.1
2014-Dec-12 18:34N 35°23' E 139°46'10 9.9
2014-Dec-12 17:34N 35°13' E 139°47'  
2014-Dec-08 07:33N 35°16' E 139°46'9 9.1
2014-Dec-08 06:33N 35°25' E 139°44'2 0.2
2014-Dec-07 17:16N 35°24' E 139°47'810.7
2014-Dec-07 16:33N 35°17' E 139°45'6 0.2
2014-Dec-06 07:30N 35°11' E 139°46'910.1
2014-Dec-06 06:33N 35°20' E 139°42'10 9.7
2014-Dec-06 05:34N 35°28' E 139°49'3 2.4
2014-Dec-06 04:25N 35°30' E 139°51'5 1.0
2014-Dec-05 23:32N 35°30' E 139°57'1010.7
2014-Dec-05 22:33N 35°24' E 139°46'10 9.6
2014-Dec-05 21:32N 35°14' E 139°47'  

Dump ship's entire track history